sensor_id;sensor_type;location;lat;lon;timestamp;temperature;humidity
38241;DHT22;24037;49.536;8.500;2023-04-03T00:01:15;2.30;1.00
38241;DHT22;24037;49.536;8.500;2023-04-03T00:03:42;2.30;1.00
38241;DHT22;24037;49.536;8.500;2023-04-03T00:06:09;2.10;1.00
38241;DHT22;24037;49.536;8.500;2023-04-03T00:08:36;1.90;1.00
38241;DHT22;24037;49.536;8.500;2023-04-03T00:11:04;1.90;1.00
38241;DHT22;24037;49.536;8.500;2023-04-03T00:13:30;1.90;1.00
38241;DHT22;24037;49.536;8.500;2023-04-03T00:15:56;1.80;1.00
38241;DHT22;24037;49.536;8.500;2023-04-03T00:18:23;1.70;1.00
38241;DHT22;24037;49.536;8.500;2023-04-03T00:20:49;1.80;1.00
38241;DHT22;24037;49.536;8.500;2023-04-03T00:23:15;1.80;1.00
38241;DHT22;24037;49.536;8.500;2023-04-03T00:25:42;1.70;1.00
38241;DHT22;24037;49.536;8.500;2023-04-03T00:28:08;1.60;1.00
38241;DHT22;24037;49.536;8.500;2023-04-03T00:30:34;1.60;1.00
38241;DHT22;24037;49.536;8.500;2023-04-03T00:33:01;1.60;1.00
38241;DHT22;24037;49.536;8.500;2023-04-03T00:35:27;1.60;1.00
38241;DHT22;24037;49.536;8.500;2023-04-03T00:37:54;1.50;1.00
38241;DHT22;24037;49.536;8.500;2023-04-03T00:40:23;1.50;1.00
38241;DHT22;24037;49.536;8.500;2023-04-03T00:42:56;1.30;1.00
38241;DHT22;24037;49.536;8.500;2023-04-03T00:45:26;1.30;1.00
38241;DHT22;24037;49.536;8.500;2023-04-03T00:47:53;1.20;1.00
38241;DHT22;24037;49.536;8.500;2023-04-03T00:50:20;1.20;1.00
38241;DHT22;24037;49.536;8.500;2023-04-03T00:52:47;1.10;1.00
38241;DHT22;24037;49.536;8.500;2023-04-03T00:55:15;1.00;1.00
38241;DHT22;24037;49.536;8.500;2023-04-03T00:57:42;1.00;1.00
38241;DHT22;24037;49.536;8.500;2023-04-03T01:00:11;1.00;1.00
38241;DHT22;24037;49.536;8.500;2023-04-03T01:02:38;0.90;1.00
38241;DHT22;24037;49.536;8.500;2023-04-03T01:05:08;0.90;1.00
38241;DHT22;24037;49.536;8.500;2023-04-03T01:07:37;0.90;1.00
38241;DHT22;24037;49.536;8.500;2023-04-03T01:10:06;1.00;1.00
38241;DHT22;24037;49.536;8.500;2023-04-03T01:12:35;1.00;1.00
38241;DHT22;24037;49.536;8.500;2023-04-03T01:15:15;1.00;1.00
38241;DHT22;24037;49.536;8.500;2023-04-03T01:17:43;1.00;1.00
38241;DHT22;24037;49.536;8.500;2023-04-03T01:25:42;1.00;1.00
38241;DHT22;24037;49.536;8.500;2023-04-03T01:28:12;1.00;1.00
38241;DHT22;24037;49.536;8.500;2023-04-03T01:33:49;1.20;1.00
38241;DHT22;24037;49.536;8.500;2023-04-03T01:36:24;1.10;1.00
38241;DHT22;24037;49.536;8.500;2023-04-03T01:38:52;1.10;1.00
38241;DHT22;24037;49.536;8.500;2023-04-03T01:41:19;1.00;1.00
38241;DHT22;24037;49.536;8.500;2023-04-03T01:43:48;0.90;1.00
38241;DHT22;24037;49.536;8.500;2023-04-03T01:46:15;0.90;1.00
38241;DHT22;24037;49.536;8.500;2023-04-03T01:48:43;1.10;1.00
38241;DHT22;24037;49.536;8.500;2023-04-03T01:51:09;1.10;1.00
38241;DHT22;24037;49.536;8.500;2023-04-03T01:53:35;1.10;1.00
38241;DHT22;24037;49.536;8.500;2023-04-03T01:56:02;1.10;1.00
38241;DHT22;24037;49.536;8.500;2023-04-03T01:58:30;1.10;1.00
38241;DHT22;24037;49.536;8.500;2023-04-03T02:00:56;1.00;1.00
38241;DHT22;24037;49.536;8.500;2023-04-03T02:03:22;0.90;1.00
38241;DHT22;24037;49.536;8.500;2023-04-03T02:05:49;1.00;1.00
38241;DHT22;24037;49.536;8.500;2023-04-03T02:08:16;1.00;1.00
38241;DHT22;24037;49.536;8.500;2023-04-03T02:10:46;1.00;1.00
38241;DHT22;24037;49.536;8.500;2023-04-03T02:13:13;1.00;1.00
38241;DHT22;24037;49.536;8.500;2023-04-03T02:15:39;0.90;1.00
38241;DHT22;24037;49.536;8.500;2023-04-03T02:18:06;0.90;1.00
38241;DHT22;24037;49.536;8.500;2023-04-03T02:20:32;0.90;1.00
38241;DHT22;24037;49.536;8.500;2023-04-03T02:22:59;0.80;1.00
38241;DHT22;24037;49.536;8.500;2023-04-03T02:25:25;0.70;1.00
38241;DHT22;24037;49.536;8.500;2023-04-03T02:27:53;0.60;1.00
38241;DHT22;24037;49.536;8.500;2023-04-03T02:30:19;0.50;1.00
38241;DHT22;24037;49.536;8.500;2023-04-03T02:32:45;0.50;1.00
38241;DHT22;24037;49.536;8.500;2023-04-03T02:35:12;0.60;1.00
38241;DHT22;24037;49.536;8.500;2023-04-03T02:37:40;0.60;1.00
38241;DHT22;24037;49.536;8.500;2023-04-03T02:40:07;0.60;1.00
38241;DHT22;24037;49.536;8.500;2023-04-03T02:42:34;0.60;1.00
38241;DHT22;24037;49.536;8.500;2023-04-03T02:45:00;0.50;1.00
38241;DHT22;24037;49.536;8.500;2023-04-03T02:47:27;0.40;1.00
38241;DHT22;24037;49.536;8.500;2023-04-03T02:49:54;0.50;1.00
38241;DHT22;24037;49.536;8.500;2023-04-03T02:52:20;0.60;1.00
38241;DHT22;24037;49.536;8.500;2023-04-03T02:54:48;0.50;1.00
38241;DHT22;24037;49.536;8.500;2023-04-03T02:57:14;0.50;1.00
38241;DHT22;24037;49.536;8.500;2023-04-03T02:59:41;0.40;1.00
38241;DHT22;24037;49.536;8.500;2023-04-03T03:02:08;0.30;1.00
38241;DHT22;24037;49.536;8.500;2023-04-03T03:04:35;0.30;1.00
38241;DHT22;24037;49.536;8.500;2023-04-03T03:07:02;0.20;1.00
38241;DHT22;24037;49.536;8.500;2023-04-03T03:09:29;0.20;1.00
38241;DHT22;24037;49.536;8.500;2023-04-03T03:11:56;0.20;1.00
38241;DHT22;24037;49.536;8.500;2023-04-03T03:14:23;0.20;1.00
38241;DHT22;24037;49.536;8.500;2023-04-03T03:16:49;0.20;1.00
38241;DHT22;24037;49.536;8.500;2023-04-03T03:19:15;0.20;1.00
38241;DHT22;24037;49.536;8.500;2023-04-03T03:21:41;0.30;1.00
38241;DHT22;24037;49.536;8.500;2023-04-03T03:24:08;0.20;1.00
38241;DHT22;24037;49.536;8.500;2023-04-03T03:26:37;0.20;1.00
38241;DHT22;24037;49.536;8.500;2023-04-03T03:29:03;0.20;1.00
38241;DHT22;24037;49.536;8.500;2023-04-03T03:31:30;0.30;1.00
38241;DHT22;24037;49.536;8.500;2023-04-03T03:33:57;0.30;1.00
38241;DHT22;24037;49.536;8.500;2023-04-03T03:36:23;0.30;1.00
38241;DHT22;24037;49.536;8.500;2023-04-03T03:38:49;0.30;1.00
38241;DHT22;24037;49.536;8.500;2023-04-03T03:41:15;0.20;1.00
38241;DHT22;24037;49.536;8.500;2023-04-03T03:43:43;0.20;1.00
38241;DHT22;24037;49.536;8.500;2023-04-03T03:46:12;0.20;1.00
38241;DHT22;24037;49.536;8.500;2023-04-03T03:48:38;0.10;1.00
38241;DHT22;24037;49.536;8.500;2023-04-03T03:51:04;0.10;1.00
38241;DHT22;24037;49.536;8.500;2023-04-03T03:53:34;0.10;1.00
38241;DHT22;24037;49.536;8.500;2023-04-03T03:56:05;0.10;1.00
38241;DHT22;24037;49.536;8.500;2023-04-03T03:58:32;0.00;1.00
38241;DHT22;24037;49.536;8.500;2023-04-03T04:01:04;0.10;1.00
38241;DHT22;24037;49.536;8.500;2023-04-03T04:03:32;0.00;1.00
38241;DHT22;24037;49.536;8.500;2023-04-03T04:05:59;-0.10;1.00
38241;DHT22;24037;49.536;8.500;2023-04-03T04:08:25;-0.10;1.00
38241;DHT22;24037;49.536;8.500;2023-04-03T04:10:51;-0.20;1.00
38241;DHT22;24037;49.536;8.500;2023-04-03T04:13:18;-0.30;1.00
38241;DHT22;24037;49.536;8.500;2023-04-03T04:15:45;-0.40;1.00
38241;DHT22;24037;49.536;8.500;2023-04-03T04:18:12;-0.40;1.00
38241;DHT22;24037;49.536;8.500;2023-04-03T04:20:40;-0.40;1.00
38241;DHT22;24037;49.536;8.500;2023-04-03T04:23:07;-0.50;1.00
38241;DHT22;24037;49.536;8.500;2023-04-03T04:25:34;-0.50;1.00
38241;DHT22;24037;49.536;8.500;2023-04-03T04:28:00;-0.50;1.00
38241;DHT22;24037;49.536;8.500;2023-04-03T04:30:27;-0.60;4.50
38241;DHT22;24037;49.536;8.500;2023-04-03T04:32:55;-0.70;8.20
38241;DHT22;24037;49.536;8.500;2023-04-03T04:35:22;-0.60;13.30
38241;DHT22;24037;49.536;8.500;2023-04-03T04:37:50;-0.60;11.50
38241;DHT22;24037;49.536;8.500;2023-04-03T04:40:17;-0.70;11.90
38241;DHT22;24037;49.536;8.500;2023-04-03T04:42:43;-0.70;11.40
38241;DHT22;24037;49.536;8.500;2023-04-03T04:45:10;-0.80;9.30
38241;DHT22;24037;49.536;8.500;2023-04-03T04:47:38;-0.80;10.40
38241;DHT22;24037;49.536;8.500;2023-04-03T04:50:05;-0.90;11.70
38241;DHT22;24037;49.536;8.500;2023-04-03T04:52:32;-0.90;14.90
38241;DHT22;24037;49.536;8.500;2023-04-03T04:54:59;-0.90;16.50
38241;DHT22;24037;49.536;8.500;2023-04-03T04:57:26;-0.90;16.50
38241;DHT22;24037;49.536;8.500;2023-04-03T04:59:52;-0.90;17.40
38241;DHT22;24037;49.536;8.500;2023-04-03T05:02:18;-0.80;21.80
38241;DHT22;24037;49.536;8.500;2023-04-03T05:04:45;-0.80;25.40
38241;DHT22;24037;49.536;8.500;2023-04-03T05:07:17;-0.80;22.30
38241;DHT22;24037;49.536;8.500;2023-04-03T05:09:44;-0.80;24.00
38241;DHT22;24037;49.536;8.500;2023-04-03T05:12:12;-0.80;23.90
38241;DHT22;24037;49.536;8.500;2023-04-03T05:14:44;-0.80;23.50
38241;DHT22;24037;49.536;8.500;2023-04-03T05:17:11;-0.90;25.10
38241;DHT22;24037;49.536;8.500;2023-04-03T05:19:41;-0.90;29.60
38241;DHT22;24037;49.536;8.500;2023-04-03T05:22:09;-0.80;37.80
38241;DHT22;24037;49.536;8.500;2023-04-03T05:24:35;-0.70;49.30
38241;DHT22;24037;49.536;8.500;2023-04-03T05:27:03;-0.60;52.20
38241;DHT22;24037;49.536;8.500;2023-04-03T05:29:30;-0.60;43.00
38241;DHT22;24037;49.536;8.500;2023-04-03T05:31:58;-0.70;40.20
38241;DHT22;24037;49.536;8.500;2023-04-03T05:34:25;-0.60;39.90
38241;DHT22;24037;49.536;8.500;2023-04-03T05:36:53;-0.50;43.10
38241;DHT22;24037;49.536;8.500;2023-04-03T05:39:19;-0.40;42.60
38241;DHT22;24037;49.536;8.500;2023-04-03T05:41:47;-0.20;43.10
38241;DHT22;24037;49.536;8.500;2023-04-03T05:44:13;0.00;39.40
38241;DHT22;24037;49.536;8.500;2023-04-03T05:46:42;0.70;37.80
38241;DHT22;24037;49.536;8.500;2023-04-03T05:49:09;1.50;1.30
38241;DHT22;24037;49.536;8.500;2023-04-03T05:51:38;2.30;1.00
38241;DHT22;24037;49.536;8.500;2023-04-03T05:54:18;2.90;1.00
38241;DHT22;24037;49.536;8.500;2023-04-03T05:56:45;3.40;1.00
38241;DHT22;24037;49.536;8.500;2023-04-03T05:59:12;3.90;1.00
38241;DHT22;24037;49.536;8.500;2023-04-03T06:01:39;4.30;99.90
38241;DHT22;24037;49.536;8.500;2023-04-03T06:04:05;4.10;99.90
38241;DHT22;24037;49.536;8.500;2023-04-03T06:06:52;4.50;99.90
38241;DHT22;24037;49.536;8.500;2023-04-03T06:09:22;4.80;99.90
38241;DHT22;24037;49.536;8.500;2023-04-03T06:11:48;4.30;99.90
38241;DHT22;24037;49.536;8.500;2023-04-03T06:14:19;4.70;99.90
38241;DHT22;24037;49.536;8.500;2023-04-03T06:16:45;4.60;99.90
38241;DHT22;24037;49.536;8.500;2023-04-03T06:19:12;4.60;99.90
38241;DHT22;24037;49.536;8.500;2023-04-03T06:21:42;4.90;99.90
38241;DHT22;24037;49.536;8.500;2023-04-03T06:24:10;5.70;99.90
38241;DHT22;24037;49.536;8.500;2023-04-03T06:26:38;5.80;99.90
38241;DHT22;24037;49.536;8.500;2023-04-03T06:29:04;6.20;99.90
38241;DHT22;24037;49.536;8.500;2023-04-03T06:31:30;6.10;99.90
38241;DHT22;24037;49.536;8.500;2023-04-03T06:33:56;6.10;99.90
38241;DHT22;24037;49.536;8.500;2023-04-03T06:36:22;6.40;99.90
38241;DHT22;24037;49.536;8.500;2023-04-03T06:38:49;6.10;99.90
38241;DHT22;24037;49.536;8.500;2023-04-03T06:41:15;6.40;99.90
38241;DHT22;24037;49.536;8.500;2023-04-03T06:43:45;6.00;99.90
38241;DHT22;24037;49.536;8.500;2023-04-03T06:46:16;5.90;99.90
38241;DHT22;24037;49.536;8.500;2023-04-03T06:48:42;6.50;99.90
38241;DHT22;24037;49.536;8.500;2023-04-03T06:53:47;6.60;99.90
38241;DHT22;24037;49.536;8.500;2023-04-03T06:56:13;6.70;99.90
38241;DHT22;24037;49.536;8.500;2023-04-03T06:58:40;6.70;99.90
38241;DHT22;24037;49.536;8.500;2023-04-03T07:01:06;7.00;99.90
38241;DHT22;24037;49.536;8.500;2023-04-03T07:03:32;7.50;99.90
38241;DHT22;24037;49.536;8.500;2023-04-03T07:05:58;7.30;99.90
38241;DHT22;24037;49.536;8.500;2023-04-03T07:08:24;6.60;99.90
38241;DHT22;24037;49.536;8.500;2023-04-03T07:10:52;6.50;99.90
38241;DHT22;24037;49.536;8.500;2023-04-03T07:13:18;6.60;99.90
38241;DHT22;24037;49.536;8.500;2023-04-03T07:15:44;7.20;99.90
38241;DHT22;24037;49.536;8.500;2023-04-03T07:18:11;6.30;99.90
38241;DHT22;24037;49.536;8.500;2023-04-03T07:20:38;5.90;99.90
38241;DHT22;24037;49.536;8.500;2023-04-03T07:23:04;5.50;99.90
38241;DHT22;24037;49.536;8.500;2023-04-03T07:25:31;5.20;99.90
38241;DHT22;24037;49.536;8.500;2023-04-03T07:27:57;5.00;99.90
38241;DHT22;24037;49.536;8.500;2023-04-03T07:30:23;5.00;99.90
38241;DHT22;24037;49.536;8.500;2023-04-03T07:32:50;5.20;99.90
38241;DHT22;24037;49.536;8.500;2023-04-03T07:35:17;5.20;99.90
38241;DHT22;24037;49.536;8.500;2023-04-03T07:37:43;5.50;99.90
38241;DHT22;24037;49.536;8.500;2023-04-03T07:40:10;6.00;99.90
38241;DHT22;24037;49.536;8.500;2023-04-03T07:42:36;6.30;99.90
38241;DHT22;24037;49.536;8.500;2023-04-03T07:45:03;7.30;99.90
38241;DHT22;24037;49.536;8.500;2023-04-03T07:47:30;7.70;99.90
38241;DHT22;24037;49.536;8.500;2023-04-03T07:49:57;7.90;99.90
38241;DHT22;24037;49.536;8.500;2023-04-03T07:52:24;7.30;99.90
38241;DHT22;24037;49.536;8.500;2023-04-03T07:54:51;7.20;99.90
38241;DHT22;24037;49.536;8.500;2023-04-03T07:57:17;8.10;99.90
38241;DHT22;24037;49.536;8.500;2023-04-03T07:59:43;8.50;99.90
38241;DHT22;24037;49.536;8.500;2023-04-03T08:02:10;8.70;99.90
38241;DHT22;24037;49.536;8.500;2023-04-03T08:04:36;8.60;99.90
38241;DHT22;24037;49.536;8.500;2023-04-03T08:07:03;8.80;99.90
38241;DHT22;24037;49.536;8.500;2023-04-03T08:09:29;9.00;99.90
38241;DHT22;24037;49.536;8.500;2023-04-03T08:11:55;8.80;99.90
38241;DHT22;24037;49.536;8.500;2023-04-03T08:14:21;8.50;99.90
38241;DHT22;24037;49.536;8.500;2023-04-03T08:16:48;8.30;99.90
38241;DHT22;24037;49.536;8.500;2023-04-03T08:19:15;8.50;99.90
38241;DHT22;24037;49.536;8.500;2023-04-03T08:21:43;9.00;98.90
38241;DHT22;24037;49.536;8.500;2023-04-03T08:24:10;9.00;93.60
38241;DHT22;24037;49.536;8.500;2023-04-03T08:26:36;9.50;91.20
38241;DHT22;24037;49.536;8.500;2023-04-03T08:29:02;9.40;85.60
38241;DHT22;24037;49.536;8.500;2023-04-03T08:31:29;9.30;82.20
38241;DHT22;24037;49.536;8.500;2023-04-03T08:33:57;9.20;86.40
38241;DHT22;24037;49.536;8.500;2023-04-03T08:36:28;9.80;75.60
38241;DHT22;24037;49.536;8.500;2023-04-03T08:38:55;9.60;68.70
38241;DHT22;24037;49.536;8.500;2023-04-03T08:41:44;9.70;61.00
38241;DHT22;24037;49.536;8.500;2023-04-03T08:47:28;9.40;55.10
38241;DHT22;24037;49.536;8.500;2023-04-03T08:50:02;8.10;58.30
38241;DHT22;24037;49.536;8.500;2023-04-03T08:52:38;7.60;70.30
38241;DHT22;24037;49.536;8.500;2023-04-03T08:55:14;9.40;61.20
38241;DHT22;24037;49.536;8.500;2023-04-03T08:57:44;10.70;48.70
38241;DHT22;24037;49.536;8.500;2023-04-03T09:02:49;10.40;38.40
38241;DHT22;24037;49.536;8.500;2023-04-03T09:05:17;10.80;37.30
38241;DHT22;24037;49.536;8.500;2023-04-03T09:07:49;11.30;33.60
38241;DHT22;24037;49.536;8.500;2023-04-03T09:10:24;11.00;31.10
38241;DHT22;24037;49.536;8.500;2023-04-03T09:13:04;10.80;32.70
38241;DHT22;24037;49.536;8.500;2023-04-03T09:15:31;10.30;34.80
38241;DHT22;24037;49.536;8.500;2023-04-03T09:18:13;10.10;35.80
38241;DHT22;24037;49.536;8.500;2023-04-03T09:21:30;10.40;33.70
38241;DHT22;24037;49.536;8.500;2023-04-03T09:26:09;11.20;31.30
38241;DHT22;24037;49.536;8.500;2023-04-03T09:28:40;11.50;29.40
38241;DHT22;24037;49.536;8.500;2023-04-03T09:31:26;11.70;27.60
38241;DHT22;24037;49.536;8.500;2023-04-03T09:34:01;11.80;27.90
38241;DHT22;24037;49.536;8.500;2023-04-03T09:36:46;11.00;27.40
38241;DHT22;24037;49.536;8.500;2023-04-03T09:39:25;11.10;27.20
38241;DHT22;24037;49.536;8.500;2023-04-03T09:42:03;12.10;24.80
38241;DHT22;24037;49.536;8.500;2023-04-03T09:44:37;10.60;24.20
38241;DHT22;24037;49.536;8.500;2023-04-03T09:49:49;10.70;26.30
38241;DHT22;24037;49.536;8.500;2023-04-03T09:52:22;10.80;26.60
38241;DHT22;24037;49.536;8.500;2023-04-03T09:54:48;10.50;27.80
38241;DHT22;24037;49.536;8.500;2023-04-03T09:57:15;11.20;26.60
38241;DHT22;24037;49.536;8.500;2023-04-03T09:59:58;11.30;24.80
38241;DHT22;24037;49.536;8.500;2023-04-03T10:02:34;10.50;24.10
38241;DHT22;24037;49.536;8.500;2023-04-03T10:05:01;10.00;25.20
38241;DHT22;24037;49.536;8.500;2023-04-03T10:07:33;10.00;28.80
38241;DHT22;24037;49.536;8.500;2023-04-03T10:10:20;9.50;27.90
38241;DHT22;24037;49.536;8.500;2023-04-03T10:12:48;9.70;28.60
38241;DHT22;24037;49.536;8.500;2023-04-03T10:15:16;9.60;28.60
38241;DHT22;24037;49.536;8.500;2023-04-03T10:17:57;9.40;29.60
38241;DHT22;24037;49.536;8.500;2023-04-03T10:20:40;9.40;29.50
38241;DHT22;24037;49.536;8.500;2023-04-03T10:28:40;8.20;31.20
38241;DHT22;24037;49.536;8.500;2023-04-03T10:31:22;8.00;33.10
38241;DHT22;24037;49.536;8.500;2023-04-03T10:34:25;8.20;32.70
38241;DHT22;24037;49.536;8.500;2023-04-03T10:39:53;9.00;33.90
38241;DHT22;24037;49.536;8.500;2023-04-03T10:45:32;8.50;36.50
38241;DHT22;24037;49.536;8.500;2023-04-03T10:48:10;8.50;31.20
38241;DHT22;24037;49.536;8.500;2023-04-03T10:50:56;8.60;31.70
38241;DHT22;24037;49.536;8.500;2023-04-03T10:54:20;8.40;32.60
38241;DHT22;24037;49.536;8.500;2023-04-03T10:56:47;8.40;31.80
38241;DHT22;24037;49.536;8.500;2023-04-03T11:02:01;9.10;29.50
38241;DHT22;24037;49.536;8.500;2023-04-03T11:04:35;8.90;30.70
38241;DHT22;24037;49.536;8.500;2023-04-03T11:07:08;8.90;29.50
38241;DHT22;24037;49.536;8.500;2023-04-03T11:09:41;9.10;28.70
38241;DHT22;24037;49.536;8.500;2023-04-03T11:12:14;9.40;25.20
38241;DHT22;24037;49.536;8.500;2023-04-03T11:14:43;9.40;27.00
38241;DHT22;24037;49.536;8.500;2023-04-03T11:17:35;9.30;26.80
38241;DHT22;24037;49.536;8.500;2023-04-03T11:20:21;9.70;25.50
38241;DHT22;24037;49.536;8.500;2023-04-03T11:23:19;10.40;24.30
38241;DHT22;24037;49.536;8.500;2023-04-03T11:25:50;10.60;25.10
38241;DHT22;24037;49.536;8.500;2023-04-03T11:28:18;10.00;26.60
38241;DHT22;24037;49.536;8.500;2023-04-03T11:34:06;10.10;23.10
38241;DHT22;24037;49.536;8.500;2023-04-03T11:36:41;9.20;25.40
38241;DHT22;24037;49.536;8.500;2023-04-03T11:39:28;9.40;28.60
38241;DHT22;24037;49.536;8.500;2023-04-03T11:41:55;9.30;28.40
38241;DHT22;24037;49.536;8.500;2023-04-03T11:44:36;9.30;26.20
38241;DHT22;24037;49.536;8.500;2023-04-03T11:47:08;9.10;25.70
38241;DHT22;24037;49.536;8.500;2023-04-03T11:50:03;9.50;27.10
38241;DHT22;24037;49.536;8.500;2023-04-03T12:16:33;9.90;25.20
38241;DHT22;24037;49.536;8.500;2023-04-03T12:24:32;9.00;29.10
38241;DHT22;24037;49.536;8.500;2023-04-03T12:30:07;8.50;31.80
38241;DHT22;24037;49.536;8.500;2023-04-03T12:35:57;8.30;32.70
38241;DHT22;24037;49.536;8.500;2023-04-03T12:46:23;9.20;31.50
38241;DHT22;24037;49.536;8.500;2023-04-03T12:48:52;9.70;30.50
38241;DHT22;24037;49.536;8.500;2023-04-03T12:51:34;9.40;28.60
38241;DHT22;24037;49.536;8.500;2023-04-03T12:54:04;8.70;30.50
38241;DHT22;24037;49.536;8.500;2023-04-03T12:56:39;8.80;30.50
38241;DHT22;24037;49.536;8.500;2023-04-03T12:59:21;8.80;28.80
38241;DHT22;24037;49.536;8.500;2023-04-03T13:02:01;8.50;30.00
38241;DHT22;24037;49.536;8.500;2023-04-03T13:04:30;8.50;31.90
38241;DHT22;24037;49.536;8.500;2023-04-03T13:06:57;8.70;33.20
38241;DHT22;24037;49.536;8.500;2023-04-03T13:09:26;8.60;33.70
38241;DHT22;24037;49.536;8.500;2023-04-03T13:12:02;8.60;34.20
38241;DHT22;24037;49.536;8.500;2023-04-03T13:14:29;8.60;35.50
38241;DHT22;24037;49.536;8.500;2023-04-03T13:17:17;8.50;35.40
38241;DHT22;24037;49.536;8.500;2023-04-03T13:19:44;8.40;33.30
38241;DHT22;24037;49.536;8.500;2023-04-03T13:22:34;8.20;32.90
38241;DHT22;24037;49.536;8.500;2023-04-03T13:25:07;8.20;30.90
38241;DHT22;24037;49.536;8.500;2023-04-03T13:27:35;8.70;30.70
38241;DHT22;24037;49.536;8.500;2023-04-03T13:30:03;8.60;28.30
38241;DHT22;24037;49.536;8.500;2023-04-03T13:32:31;8.70;28.70
38241;DHT22;24037;49.536;8.500;2023-04-03T13:34:58;8.80;27.20
38241;DHT22;24037;49.536;8.500;2023-04-03T13:37:29;9.30;27.40
38241;DHT22;24037;49.536;8.500;2023-04-03T13:42:37;9.40;28.40
38241;DHT22;24037;49.536;8.500;2023-04-03T13:45:25;9.60;28.30
38241;DHT22;24037;49.536;8.500;2023-04-03T13:53:17;8.50;28.80
38241;DHT22;24037;49.536;8.500;2023-04-03T13:56:00;8.50;29.20
38241;DHT22;24037;49.536;8.500;2023-04-03T13:58:32;8.70;27.10
38241;DHT22;24037;49.536;8.500;2023-04-03T14:01:07;9.10;27.10
38241;DHT22;24037;49.536;8.500;2023-04-03T14:03:44;9.10;23.00
38241;DHT22;24037;49.536;8.500;2023-04-03T14:06:16;9.50;22.90
38241;DHT22;24037;49.536;8.500;2023-04-03T14:08:43;9.70;23.10
38241;DHT22;24037;49.536;8.500;2023-04-03T14:11:19;9.80;21.10
38241;DHT22;24037;49.536;8.500;2023-04-03T14:13:47;9.80;23.60
38241;DHT22;24037;49.536;8.500;2023-04-03T14:16:15;9.40;22.10
38241;DHT22;24037;49.536;8.500;2023-04-03T14:18:44;8.70;23.60
38241;DHT22;24037;49.536;8.500;2023-04-03T14:21:15;8.50;24.90
38241;DHT22;24037;49.536;8.500;2023-04-03T14:23:41;8.40;24.40
38241;DHT22;24037;49.536;8.500;2023-04-03T14:26:17;8.50;24.40
38241;DHT22;24037;49.536;8.500;2023-04-03T14:28:45;8.70;22.80
38241;DHT22;24037;49.536;8.500;2023-04-03T14:31:12;8.80;23.70
38241;DHT22;24037;49.536;8.500;2023-04-03T14:33:39;8.90;22.60
38241;DHT22;24037;49.536;8.500;2023-04-03T14:36:13;9.30;21.70
38241;DHT22;24037;49.536;8.500;2023-04-03T14:38:40;9.30;19.40
38241;DHT22;24037;49.536;8.500;2023-04-03T14:41:07;9.20;18.10
38241;DHT22;24037;49.536;8.500;2023-04-03T14:43:33;9.00;19.20
38241;DHT22;24037;49.536;8.500;2023-04-03T14:46:00;9.20;20.40
38241;DHT22;24037;49.536;8.500;2023-04-03T14:48:27;9.40;21.00
38241;DHT22;24037;49.536;8.500;2023-04-03T14:50:54;9.60;20.30
38241;DHT22;24037;49.536;8.500;2023-04-03T14:53:21;9.30;18.30
38241;DHT22;24037;49.536;8.500;2023-04-03T14:55:52;9.10;20.00
38241;DHT22;24037;49.536;8.500;2023-04-03T14:58:19;8.90;20.80
38241;DHT22;24037;49.536;8.500;2023-04-03T15:00:46;8.80;19.80
38241;DHT22;24037;49.536;8.500;2023-04-03T15:03:15;8.70;20.00
38241;DHT22;24037;49.536;8.500;2023-04-03T15:05:43;8.70;20.00
38241;DHT22;24037;49.536;8.500;2023-04-03T15:08:22;8.80;20.00
38241;DHT22;24037;49.536;8.500;2023-04-03T15:10:50;9.10;18.90
38241;DHT22;24037;49.536;8.500;2023-04-03T15:13:19;9.30;17.90
38241;DHT22;24037;49.536;8.500;2023-04-03T15:15:46;9.30;15.90
38241;DHT22;24037;49.536;8.500;2023-04-03T15:18:22;9.30;15.90
38241;DHT22;24037;49.536;8.500;2023-04-03T15:20:49;9.20;16.60
38241;DHT22;24037;49.536;8.500;2023-04-03T15:23:16;9.40;16.60
38241;DHT22;24037;49.536;8.500;2023-04-03T15:25:45;9.30;15.40
38241;DHT22;24037;49.536;8.500;2023-04-03T15:28:40;9.00;16.40
38241;DHT22;24037;49.536;8.500;2023-04-03T15:31:08;9.10;17.40
38241;DHT22;24037;49.536;8.500;2023-04-03T15:33:35;9.30;16.90
38241;DHT22;24037;49.536;8.500;2023-04-03T15:36:02;9.40;16.90
38241;DHT22;24037;49.536;8.500;2023-04-03T15:38:28;9.30;17.10
38241;DHT22;24037;49.536;8.500;2023-04-03T15:40:55;9.40;17.70
38241;DHT22;24037;49.536;8.500;2023-04-03T15:43:30;9.40;18.50
38241;DHT22;24037;49.536;8.500;2023-04-03T15:45:58;9.30;17.80
38241;DHT22;24037;49.536;8.500;2023-04-03T15:48:26;9.30;18.50
38241;DHT22;24037;49.536;8.500;2023-04-03T15:50:53;9.20;19.00
38241;DHT22;24037;49.536;8.500;2023-04-03T15:53:20;9.30;18.80
38241;DHT22;24037;49.536;8.500;2023-04-03T15:55:46;9.30;19.50
38241;DHT22;24037;49.536;8.500;2023-04-03T15:58:12;9.20;19.10
38241;DHT22;24037;49.536;8.500;2023-04-03T16:00:38;9.10;19.10
38241;DHT22;24037;49.536;8.500;2023-04-03T16:03:12;8.80;19.60
38241;DHT22;24037;49.536;8.500;2023-04-03T16:05:40;8.90;20.40
38241;DHT22;24037;49.536;8.500;2023-04-03T16:08:07;9.00;19.30
38241;DHT22;24037;49.536;8.500;2023-04-03T16:10:35;9.00;20.70
38241;DHT22;24037;49.536;8.500;2023-04-03T16:13:01;9.10;20.20
38241;DHT22;24037;49.536;8.500;2023-04-03T16:15:28;9.20;19.10
38241;DHT22;24037;49.536;8.500;2023-04-03T16:17:54;9.20;18.30
38241;DHT22;24037;49.536;8.500;2023-04-03T16:20:21;9.30;18.50
38241;DHT22;24037;49.536;8.500;2023-04-03T16:22:47;9.30;18.50
38241;DHT22;24037;49.536;8.500;2023-04-03T16:25:13;9.20;17.30
38241;DHT22;24037;49.536;8.500;2023-04-03T16:27:40;9.00;17.30
38241;DHT22;24037;49.536;8.500;2023-04-03T16:30:07;9.00;17.80
38241;DHT22;24037;49.536;8.500;2023-04-03T16:32:33;9.00;17.80
38241;DHT22;24037;49.536;8.500;2023-04-03T16:35:00;8.80;18.10
38241;DHT22;24037;49.536;8.500;2023-04-03T16:37:26;8.80;18.60
38241;DHT22;24037;49.536;8.500;2023-04-03T16:39:52;8.90;19.10
38241;DHT22;24037;49.536;8.500;2023-04-03T16:42:19;8.70;18.90
38241;DHT22;24037;49.536;8.500;2023-04-03T16:44:45;8.60;19.30
38241;DHT22;24037;49.536;8.500;2023-04-03T16:47:11;8.60;19.80
38241;DHT22;24037;49.536;8.500;2023-04-03T16:49:39;8.70;20.20
38241;DHT22;24037;49.536;8.500;2023-04-03T16:52:05;8.60;18.10
38241;DHT22;24037;49.536;8.500;2023-04-03T16:54:32;8.60;18.60
38241;DHT22;24037;49.536;8.500;2023-04-03T16:56:58;8.50;19.30
38241;DHT22;24037;49.536;8.500;2023-04-03T16:59:24;8.50;19.50
38241;DHT22;24037;49.536;8.500;2023-04-03T17:01:51;8.30;19.20
38241;DHT22;24037;49.536;8.500;2023-04-03T17:04:17;8.20;19.10
38241;DHT22;24037;49.536;8.500;2023-04-03T17:06:43;8.20;19.60
38241;DHT22;24037;49.536;8.500;2023-04-03T17:09:09;8.20;20.10
38241;DHT22;24037;49.536;8.500;2023-04-03T17:11:36;8.10;20.90
38241;DHT22;24037;49.536;8.500;2023-04-03T17:14:02;8.10;20.90
38241;DHT22;24037;49.536;8.500;2023-04-03T17:16:29;8.00;21.80
38241;DHT22;24037;49.536;8.500;2023-04-03T17:18:56;8.00;20.50
38241;DHT22;24037;49.536;8.500;2023-04-03T17:21:23;8.00;21.30
38241;DHT22;24037;49.536;8.500;2023-04-03T17:23:53;7.90;21.80
38241;DHT22;24037;49.536;8.500;2023-04-03T17:26:24;7.80;21.80
38241;DHT22;24037;49.536;8.500;2023-04-03T17:28:52;7.70;21.80
38241;DHT22;24037;49.536;8.500;2023-04-03T17:31:19;7.60;22.00
38241;DHT22;24037;49.536;8.500;2023-04-03T17:33:45;7.50;22.40